createdAt,value
2022-10-31T00:00:50.485Z,250.90
2022-10-31T00:03:38.978Z,199.63
2022-10-31T00:06:07.398Z,236.80
2022-10-31T00:08:36.318Z,223.60
2022-10-31T00:11:10.687Z,170.20
2022-10-31T00:13:39.618Z,155.70
2022-10-31T00:16:15.215Z,194.05
2022-10-31T00:18:44.071Z,160.75
2022-10-31T00:21:12.377Z,224.70
2022-10-31T00:23:41.141Z,209.27
2022-10-31T00:26:09.471Z,153.77
2022-10-31T00:28:38.380Z,166.52
2022-10-31T00:31:09.553Z,321.20
2022-10-31T00:33:40.378Z,199.55
2022-10-31T00:36:12.142Z,210.73
2022-10-31T00:38:43.681Z,150.45
2022-10-31T00:41:13.491Z,269.10
2022-10-31T00:43:44.311Z,323.88
2022-10-31T00:46:13.839Z,259.55
2022-10-31T00:48:43.526Z,132.45
2022-10-31T00:51:11.865Z,160.20
2022-10-31T00:53:42.007Z,180.18
2022-10-31T00:56:10.814Z,212.23
2022-10-31T00:58:39.633Z,147.77
2022-10-31T01:01:09.225Z,182.98
2022-10-31T01:03:39.953Z,235.65
2022-10-31T01:06:14.488Z,276.30
2022-10-31T01:08:44.355Z,179.63
2022-10-31T01:11:21.732Z,374.08
2022-10-31T01:13:55.055Z,261.05
2022-10-31T01:16:27.017Z,263.90
2022-10-31T01:18:55.586Z,219.82
2022-10-31T01:21:27.104Z,170.02
2022-10-31T01:23:58.423Z,137.95
2022-10-31T01:26:29.438Z,281.98
2022-10-31T01:29:00.711Z,218.20
2022-10-31T01:31:33.069Z,160.13
2022-10-31T01:34:01.836Z,169.75
2022-10-31T01:36:32.750Z,151.18
2022-10-31T01:39:05.400Z,126.85
2022-10-31T01:41:37.350Z,159.00
2022-10-31T01:44:31.379Z,137.80
2022-10-31T01:47:00.729Z,140.75
2022-10-31T01:49:41.438Z,185.57
2022-10-31T01:52:22.938Z,140.00
2022-10-31T01:55:17.138Z,263.23
2022-10-31T02:00:35.979Z,325.15
2022-10-31T02:03:04.782Z,130.30
2022-10-31T02:05:34.074Z,157.55
2022-10-31T02:08:15.763Z,214.70
2022-10-31T02:10:45.482Z,180.40
2022-10-31T02:13:14.575Z,206.65
2022-10-31T02:15:52.571Z,215.02
2022-10-31T02:18:21.885Z,222.50
2022-10-31T02:21:09.020Z,333.08
2022-10-31T02:23:50.621Z,357.33
2022-10-31T02:26:27.845Z,230.65
2022-10-31T02:29:30.215Z,193.25
2022-10-31T02:32:09.150Z,244.13
2022-10-31T02:34:43.672Z,224.40
2022-10-31T02:37:26.988Z,243.63
2022-10-31T02:40:05.947Z,206.27
2022-10-31T02:45:47.223Z,290.70
2022-10-31T02:48:28.179Z,255.52
2022-10-31T02:51:03.477Z,270.58
2022-10-31T02:53:36.799Z,240.38
2022-10-31T02:56:14.739Z,252.15
2022-10-31T02:58:58.760Z,236.25
2022-10-31T03:01:33.222Z,204.35
2022-10-31T03:04:18.307Z,261.90
2022-10-31T03:06:55.282Z,235.52
2022-10-31T03:09:37.629Z,345.23
2022-10-31T03:14:49.591Z,390.77
2022-10-31T03:17:34.398Z,262.10
2022-10-31T03:20:07.620Z,311.25
2022-10-31T03:22:39.042Z,325.08
2022-10-31T03:25:10.097Z,355.20
2022-10-31T03:27:42.005Z,332.27
2022-10-31T03:30:11.371Z,323.13
2022-10-31T03:32:59.023Z,288.33
2022-10-31T03:35:33.624Z,223.65
2022-10-31T03:38:08.072Z,319.27
2022-10-31T03:40:40.735Z,260.52
2022-10-31T03:43:20.394Z,322.50
2022-10-31T03:45:50.857Z,268.88
2022-10-31T03:48:22.133Z,249.77
2022-10-31T03:51:02.499Z,201.93
2022-10-31T03:53:39.804Z,301.23
2022-10-31T03:56:19.264Z,274.33
2022-10-31T03:59:01.702Z,220.50
2022-10-31T04:01:35.673Z,309.17
2022-10-31T04:04:04.972Z,400.67
2022-10-31T04:06:35.909Z,203.10
2022-10-31T04:09:07.805Z,175.55
2022-10-31T04:11:47.351Z,334.02
2022-10-31T04:14:55.439Z,182.75
2022-10-31T04:20:18.466Z,350.83
2022-10-31T04:22:47.200Z,217.85
2022-10-31T04:25:15.705Z,214.77
2022-10-31T04:27:44.897Z,243.80
2022-10-31T04:30:13.505Z,152.57
2022-10-31T04:32:44.577Z,187.75
2022-10-31T04:35:13.820Z,261.92
2022-10-31T04:37:43.200Z,157.85
2022-10-31T04:40:12.031Z,169.23
2022-10-31T04:42:41.050Z,163.82
2022-10-31T04:45:10.152Z,193.00
2022-10-31T04:47:39.315Z,197.48
2022-10-31T04:50:08.363Z,211.13
2022-10-31T04:52:41.121Z,244.15
2022-10-31T04:55:12.140Z,194.20
2022-10-31T04:57:51.811Z,225.20
2022-10-31T05:00:23.064Z,158.95
2022-10-31T05:02:55.011Z,228.10
2022-10-31T05:05:28.380Z,141.90
2022-10-31T05:07:57.754Z,233.60
2022-10-31T05:10:37.862Z,277.35
2022-10-31T05:13:06.986Z,265.25
2022-10-31T05:15:54.103Z,222.32
2022-10-31T05:18:57.489Z,173.43
2022-10-31T05:21:46.230Z,379.08
2022-10-31T05:24:15.977Z,142.45
2022-10-31T05:26:51.110Z,207.15
2022-10-31T05:29:19.962Z,186.75
2022-10-31T05:31:48.380Z,205.85
2022-10-31T05:34:42.902Z,190.82
2022-10-31T05:37:37.019Z,203.30
2022-10-31T05:40:08.733Z,187.00
2022-10-31T05:42:39.951Z,180.93
2022-10-31T05:45:11.545Z,200.68
2022-10-31T05:48:02.754Z,328.85
2022-10-31T05:50:51.052Z,304.73
2022-10-31T05:53:22.021Z,112.30
2022-10-31T05:55:50.793Z,161.13
2022-10-31T05:58:21.669Z,123.82
2022-10-31T06:01:02.858Z,160.27
2022-10-31T06:03:32.418Z,155.93
2022-10-31T06:06:04.267Z,177.65
2022-10-31T06:08:38.194Z,175.93
2022-10-31T06:11:10.230Z,205.30
2022-10-31T06:14:07.811Z,250.70
2022-10-31T06:16:45.346Z,292.13
2022-10-31T06:19:36.656Z,207.27
2022-10-31T06:22:05.689Z,296.45
2022-10-31T06:24:38.474Z,263.25
2022-10-31T06:27:20.239Z,287.00
2022-10-31T06:29:49.399Z,178.38
2022-10-31T06:32:30.575Z,357.70
2022-10-31T06:35:00.155Z,166.93
2022-10-31T06:37:28.881Z,307.17
2022-10-31T06:40:04.315Z,247.02
2022-10-31T06:42:41.091Z,186.43
2022-10-31T06:45:11.403Z,201.63
2022-10-31T06:48:17.930Z,199.50
2022-10-31T06:51:10.659Z,222.38
2022-10-31T06:53:42.756Z,183.25
2022-10-31T06:56:15.738Z,198.65
2022-10-31T06:58:49.989Z,166.90
2022-10-31T07:12:47.211Z,198.27
2022-10-31T07:15:19.057Z,159.85
2022-10-31T07:17:47.792Z,149.02
2022-10-31T07:20:18.892Z,147.73
2022-10-31T07:23:49.332Z,201.45
2022-10-31T07:28:19.356Z,219.68
2022-10-31T07:36:33.272Z,169.48
2022-10-31T07:46:31.952Z,212.90
2022-10-31T07:54:30.359Z,268.50
2022-10-31T08:02:19.845Z,167.75
2022-10-31T08:04:52.527Z,206.32
2022-10-31T08:07:39.655Z,175.27
2022-10-31T08:10:24.261Z,155.63
2022-10-31T08:13:14.361Z,132.02
2022-10-31T08:16:19.513Z,143.48
2022-10-31T08:18:56.786Z,164.82
2022-10-31T08:21:29.176Z,185.50
2022-10-31T08:23:57.742Z,173.90
2022-10-31T08:26:27.630Z,294.50
2022-10-31T08:28:57.968Z,151.27
2022-10-31T08:31:35.787Z,149.07
2022-10-31T08:34:25.983Z,131.48
2022-10-31T08:37:13.559Z,184.10
2022-10-31T08:39:47.639Z,127.85
2022-10-31T08:42:16.708Z,239.10
2022-10-31T08:44:45.254Z,187.25
2022-10-31T08:47:18.071Z,201.40
2022-10-31T08:49:46.592Z,139.23
2022-10-31T08:53:03.434Z,169.82
2022-10-31T08:55:31.087Z,172.63
2022-10-31T08:58:11.446Z,164.70
2022-10-31T09:00:46.941Z,180.07
2022-10-31T09:03:22.010Z,135.68
2022-10-31T09:05:51.968Z,256.13
2022-10-31T09:08:20.516Z,221.90
2022-10-31T09:10:50.824Z,233.27
2022-10-31T09:13:29.005Z,148.07
2022-10-31T09:16:15.818Z,143.65
2022-10-31T09:18:45.618Z,153.65
2022-10-31T09:21:18.285Z,139.63
2022-10-31T09:23:48.815Z,118.45
2022-10-31T09:26:17.522Z,132.75
2022-10-31T09:28:56.330Z,153.82
2022-10-31T09:31:26.002Z,132.40
2022-10-31T09:34:04.980Z,259.95
2022-10-31T09:36:40.290Z,146.80
2022-10-31T09:39:13.556Z,144.32
2022-10-31T09:42:05.799Z,142.38
2022-10-31T09:44:51.299Z,124.47
2022-10-31T09:47:44.972Z,146.98
2022-10-31T09:51:14.983Z,183.15
2022-10-31T09:54:19.671Z,128.40
2022-10-31T09:57:17.289Z,137.73
2022-10-31T09:59:50.743Z,158.07
2022-10-31T10:02:38.893Z,188.10
2022-10-31T10:05:12.877Z,127.47
2022-10-31T10:08:02.566Z,143.60
2022-10-31T10:11:13.756Z,108.38
2022-10-31T10:14:17.041Z,120.30
2022-10-31T10:16:57.524Z,139.65
2022-10-31T10:20:02.581Z,100.63
2022-10-31T10:22:49.368Z,147.23
2022-10-31T10:25:32.941Z,127.43
2022-10-31T10:28:39.221Z,132.60
2022-10-31T10:31:21.418Z,155.60
2022-10-31T10:34:19.218Z,140.27
2022-10-31T10:36:57.957Z,155.05
2022-10-31T10:39:35.599Z,199.57
2022-10-31T10:42:32.442Z,165.90
2022-10-31T10:45:26.406Z,180.63
2022-10-31T10:48:09.426Z,156.82
2022-10-31T10:50:46.549Z,226.50
2022-10-31T10:53:50.151Z,204.73
2022-10-31T10:56:35.658Z,269.08
2022-10-31T10:59:04.663Z,226.55
2022-10-31T11:01:33.490Z,222.20
2022-10-31T11:04:03.878Z,180.00
2022-10-31T11:06:34.397Z,259.45
2022-10-31T11:09:11.148Z,297.98
2022-10-31T11:11:42.263Z,364.58
2022-10-31T11:14:16.612Z,288.73
2022-10-31T11:16:49.405Z,285.10
2022-10-31T11:19:21.313Z,214.00
2022-10-31T11:21:53.769Z,179.32
2022-10-31T11:24:26.438Z,148.27
2022-10-31T11:27:14.373Z,157.70
2022-10-31T11:29:44.068Z,130.63
2022-10-31T11:32:27.667Z,124.18
2022-10-31T11:34:59.560Z,122.28
2022-10-31T11:37:31.262Z,140.82
2022-10-31T11:40:07.938Z,134.75
2022-10-31T11:42:42.605Z,181.93
2022-10-31T11:45:20.339Z,164.18
2022-10-31T11:47:54.035Z,223.63
2022-10-31T11:50:49.414Z,188.70
2022-10-31T11:53:51.720Z,290.52
2022-10-31T11:56:20.645Z,181.57
2022-10-31T11:59:01.331Z,220.88
2022-10-31T12:01:32.515Z,237.82
2022-10-31T12:04:07.531Z,247.40
2022-10-31T12:06:41.268Z,232.45
2022-10-31T12:09:29.450Z,228.95
2022-10-31T12:12:12.983Z,192.98
2022-10-31T12:14:56.978Z,149.82
2022-10-31T12:17:36.175Z,168.57
2022-10-31T12:20:08.102Z,142.15
2022-10-31T12:22:54.955Z,126.68
2022-10-31T12:25:36.044Z,149.13
2022-10-31T12:28:16.762Z,179.15
2022-10-31T12:31:27.282Z,202.73
2022-10-31T12:34:22.601Z,245.93
2022-10-31T12:37:27.228Z,208.30
2022-10-31T12:40:22.765Z,202.07
2022-10-31T12:42:51.334Z,160.70
2022-10-31T12:45:22.745Z,137.50
2022-10-31T12:50:58.438Z,187.23
2022-10-31T12:53:52.050Z,160.25
2022-10-31T12:56:23.897Z,225.90
2022-10-31T12:59:08.650Z,168.40
2022-10-31T13:01:42.896Z,154.77
2022-10-31T13:04:22.620Z,154.40
2022-10-31T13:07:05.006Z,185.57
2022-10-31T13:12:11.728Z,194.63
2022-10-31T13:14:57.979Z,256.63
2022-10-31T13:17:35.664Z,200.15
2022-10-31T13:20:17.899Z,164.20
2022-10-31T13:22:50.681Z,193.52
2022-10-31T13:25:26.472Z,285.50
2022-10-31T13:28:06.307Z,249.05
2022-10-31T13:30:41.029Z,189.50
2022-10-31T13:33:19.833Z,185.10
2022-10-31T13:36:29.063Z,210.63
2022-10-31T13:39:11.713Z,205.93
2022-10-31T13:41:42.877Z,387.83
2022-10-31T13:44:26.607Z,392.83
2022-10-31T13:46:57.422Z,198.13
2022-10-31T13:49:32.127Z,259.43
2022-10-31T13:52:13.442Z,416.80
2022-10-31T13:54:56.781Z,221.23
2022-10-31T13:57:35.918Z,235.50
2022-10-31T14:00:26.893Z,207.20
2022-10-31T14:02:58.885Z,275.67
2022-10-31T14:05:36.567Z,219.35
2022-10-31T14:08:21.769Z,185.85
2022-10-31T14:10:56.641Z,198.45
2022-10-31T14:13:35.305Z,217.57
2022-10-31T14:16:26.094Z,139.25
2022-10-31T14:19:24.150Z,185.20
2022-10-31T14:25:44.897Z,217.25
2022-10-31T14:30:53.680Z,268.67
2022-10-31T14:32:28.256Z,311.08
2022-10-31T14:36:02.643Z,275.83
2022-10-31T14:39:43.527Z,341.20
2022-10-31T14:45:26.247Z,324.77
2022-10-31T14:49:02.243Z,476.73
2022-10-31T14:51:39.608Z,398.35
2022-10-31T14:54:18.327Z,457.77
2022-10-31T14:56:53.355Z,450.23
2022-10-31T14:59:28.629Z,530.22
2022-10-31T15:02:08.507Z,636.88
2022-10-31T15:04:41.644Z,661.83
2022-10-31T15:07:26.887Z,430.70
2022-10-31T15:10:01.666Z,536.80
2022-10-31T15:12:32.690Z,620.85
2022-10-31T15:15:35.155Z,629.20
2022-10-31T15:18:06.570Z,523.55
2022-10-31T15:20:44.086Z,694.63
2022-10-31T15:23:24.957Z,474.63
2022-10-31T15:26:02.757Z,474.92
2022-10-31T15:28:32.513Z,429.15
2022-10-31T15:31:03.615Z,620.00
2022-10-31T15:33:46.936Z,525.25
2022-10-31T15:36:24.088Z,467.38
2022-10-31T15:38:59.676Z,478.90
2022-10-31T15:41:45.019Z,566.53
2022-10-31T15:44:27.332Z,389.42
2022-10-31T15:47:02.487Z,536.30
2022-10-31T15:49:36.354Z,284.25
2022-10-31T15:52:16.916Z,412.70
2022-10-31T15:54:52.007Z,450.77
2022-10-31T15:57:20.766Z,425.02
2022-10-31T15:59:51.326Z,386.40
2022-10-31T16:02:23.478Z,269.60
2022-10-31T16:07:23.986Z,208.65
2022-10-31T16:10:03.054Z,213.70
2022-10-31T16:12:53.140Z,216.27
2022-10-31T16:15:22.549Z,216.60
2022-10-31T16:17:54.871Z,171.52
2022-10-31T16:20:29.029Z,217.65
2022-10-31T16:23:02.428Z,162.32
2022-10-31T16:25:37.871Z,187.30
2022-10-31T16:28:17.578Z,151.40
2022-10-31T16:30:53.645Z,157.25
2022-10-31T16:33:32.178Z,182.98
2022-10-31T16:36:35.854Z,157.38
2022-10-31T16:39:11.495Z,141.13
2022-10-31T16:41:44.204Z,123.80
2022-10-31T16:44:27.910Z,122.57
2022-10-31T16:47:10.258Z,112.20
2022-10-31T16:49:39.872Z,135.25
2022-10-31T16:52:08.352Z,134.55
2022-10-31T16:54:37.235Z,151.13
2022-10-31T16:57:16.836Z,200.88
2022-10-31T16:59:52.734Z,139.65
2022-10-31T17:02:22.041Z,108.20
2022-10-31T17:04:53.933Z,118.25
2022-10-31T17:07:25.280Z,153.35
2022-10-31T17:09:53.981Z,115.50
2022-10-31T17:12:27.234Z,134.63
2022-10-31T17:14:57.013Z,136.00
2022-10-31T17:17:25.467Z,129.57
2022-10-31T17:19:54.251Z,111.18
2022-10-31T17:22:22.701Z,116.32
2022-10-31T17:24:51.401Z,131.45
2022-10-31T17:27:21.175Z,188.25
2022-10-31T17:29:51.389Z,206.07
2022-10-31T17:32:19.774Z,131.32
2022-10-31T17:34:48.572Z,153.77
2022-10-31T17:37:17.043Z,158.88
2022-10-31T17:39:45.972Z,158.68
2022-10-31T17:42:14.241Z,162.75
2022-10-31T17:44:43.085Z,137.45
2022-10-31T17:47:11.497Z,160.75
2022-10-31T17:49:40.571Z,155.70
2022-10-31T17:52:11.918Z,123.18
2022-10-31T17:54:41.045Z,112.88
2022-10-31T17:57:09.568Z,121.78
2022-10-31T17:59:40.755Z,116.80
2022-10-31T18:02:12.457Z,179.52
2022-10-31T18:07:11.174Z,182.80
2022-10-31T18:09:39.870Z,164.77
2022-10-31T18:12:08.510Z,112.80
2022-10-31T18:14:38.611Z,126.63
2022-10-31T18:17:07.442Z,117.35
2022-10-31T18:19:36.093Z,104.00
2022-10-31T18:22:04.534Z,130.20
2022-10-31T18:24:35.039Z,106.65
2022-10-31T18:27:31.861Z,110.47
2022-10-31T18:30:00.577Z,132.57
2022-10-31T18:32:32.426Z,213.43
2022-10-31T18:37:29.905Z,124.93
2022-10-31T18:39:58.806Z,149.35
2022-10-31T18:42:27.499Z,137.30
2022-10-31T18:44:56.508Z,106.13
2022-10-31T18:47:26.135Z,93.07
2022-10-31T18:49:55.303Z,100.70
2022-10-31T18:52:26.035Z,112.13
2022-10-31T18:54:55.096Z,117.43
2022-10-31T18:57:23.750Z,138.88
2022-10-31T18:59:52.405Z,170.23
2022-10-31T19:02:21.118Z,165.38
2022-10-31T19:04:50.595Z,126.97
2022-10-31T19:07:19.133Z,125.60
2022-10-31T19:09:48.209Z,164.32
2022-10-31T19:12:16.727Z,177.02
2022-10-31T19:14:45.569Z,284.08
2022-10-31T19:17:15.545Z,202.60
2022-10-31T19:19:44.525Z,174.07
2022-10-31T19:22:12.827Z,453.50
2022-10-31T19:24:41.465Z,181.07
2022-10-31T19:27:10.402Z,141.32
2022-10-31T19:29:44.395Z,177.68
2022-10-31T19:32:13.221Z,193.77
2022-10-31T19:34:41.806Z,151.35
2022-10-31T19:37:10.123Z,147.93
2022-10-31T19:39:43.938Z,131.02
2022-10-31T19:42:12.748Z,147.15
2022-10-31T19:44:41.551Z,131.88
2022-10-31T19:47:10.976Z,128.88
2022-10-31T19:49:40.285Z,132.15
2022-10-31T19:52:08.648Z,173.13
2022-10-31T19:54:37.282Z,165.40
2022-10-31T19:57:05.958Z,167.13
2022-10-31T19:59:39.104Z,175.65
2022-10-31T20:02:10.280Z,191.20
2022-10-31T20:04:39.487Z,217.48
2022-10-31T20:07:08.991Z,206.68
2022-10-31T20:09:38.207Z,226.18
2022-10-31T20:12:07.558Z,244.88
2022-10-31T20:14:36.558Z,261.23
2022-10-31T20:17:05.628Z,152.88
2022-10-31T20:19:35.005Z,156.30
2022-10-31T20:22:03.680Z,149.82
2022-10-31T20:24:33.309Z,125.75
2022-10-31T20:27:04.631Z,143.00
2022-10-31T20:29:33.457Z,115.88
2022-10-31T20:32:02.273Z,173.27
2022-10-31T20:34:30.891Z,150.18
2022-10-31T20:36:59.266Z,174.75
2022-10-31T20:39:27.846Z,150.52
2022-10-31T20:41:56.279Z,176.82
2022-10-31T20:44:25.027Z,185.73
2022-10-31T20:46:53.321Z,198.40
2022-10-31T20:49:23.320Z,159.38
2022-10-31T20:51:52.531Z,205.68
2022-10-31T20:54:21.151Z,195.00
2022-10-31T20:56:50.113Z,164.25
2022-10-31T20:59:20.074Z,173.02
2022-10-31T21:01:48.917Z,169.98
2022-10-31T21:04:18.322Z,142.45
2022-10-31T21:06:49.404Z,152.25
2022-10-31T21:09:18.546Z,133.60
2022-10-31T21:11:46.954Z,137.45
2022-10-31T21:14:16.112Z,118.28
2022-10-31T21:16:44.406Z,145.02
2022-10-31T21:19:13.492Z,148.95
2022-10-31T21:21:42.183Z,211.95
2022-10-31T21:24:16.471Z,200.52
2022-10-31T21:26:47.827Z,167.18
2022-10-31T21:29:18.806Z,151.52
2022-10-31T21:31:47.911Z,152.10
2022-10-31T21:34:17.012Z,126.93
2022-10-31T21:36:45.711Z,147.43
2022-10-31T21:39:14.705Z,150.68
2022-10-31T21:41:43.323Z,196.20
2022-10-31T21:44:12.391Z,170.63
2022-10-31T21:46:40.869Z,124.78
2022-10-31T21:49:10.882Z,164.93
2022-10-31T21:51:39.330Z,185.50
2022-10-31T21:54:31.665Z,202.75
2022-10-31T21:57:01.883Z,217.35
2022-10-31T21:59:31.626Z,160.73
2022-10-31T22:02:00.911Z,154.63
2022-10-31T22:04:30.189Z,214.05
2022-10-31T22:06:58.791Z,138.25
2022-10-31T22:09:29.213Z,119.30
2022-10-31T22:11:57.811Z,103.53
2022-10-31T22:14:26.512Z,126.13
2022-10-31T22:16:55.133Z,147.35
2022-10-31T22:19:31.593Z,146.73
2022-10-31T22:22:00.280Z,131.23
2022-10-31T22:24:31.735Z,138.13
2022-10-31T22:27:00.428Z,128.02
2022-10-31T22:29:29.180Z,144.90
2022-10-31T22:31:59.740Z,132.93
2022-10-31T22:34:31.936Z,140.68
2022-10-31T22:37:02.617Z,112.68
2022-10-31T22:39:31.950Z,154.67
2022-10-31T22:42:00.481Z,146.48
2022-10-31T22:44:29.326Z,171.10
2022-10-31T22:47:02.562Z,128.35
2022-10-31T22:49:31.810Z,172.80
2022-10-31T22:52:03.646Z,151.25
2022-10-31T22:57:01.231Z,229.85
2022-10-31T22:59:35.132Z,219.63
2022-10-31T23:02:06.017Z,171.65
2022-10-31T23:04:37.954Z,171.88
2022-10-31T23:07:06.857Z,187.25
2022-10-31T23:09:39.522Z,191.30
2022-10-31T23:12:27.257Z,168.13
2022-10-31T23:15:00.205Z,233.18
2022-10-31T23:17:30.337Z,227.07
2022-10-31T23:19:59.777Z,176.80
2022-10-31T23:22:28.288Z,170.00
2022-10-31T23:24:57.207Z,187.82
2022-10-31T23:27:25.744Z,165.88
2022-10-31T23:29:56.636Z,199.68
2022-10-31T23:32:31.403Z,180.05
2022-10-31T23:35:03.683Z,227.10
2022-10-31T23:40:02.549Z,250.63
2022-10-31T23:42:31.163Z,275.48
2022-10-31T23:44:59.926Z,235.63
2022-10-31T23:47:28.304Z,186.48
2022-10-31T23:50:24.495Z,185.32
2022-10-31T23:53:01.932Z,207.93
2022-10-31T23:55:31.248Z,205.32
2022-10-31T23:58:00.201Z,173.25
